Большое Савино

Карта отелей и гостиниц, располагающихся рядом с аэропортом Большое Савино :

Большое Савино
Пермь
Пермский край 57° 54' 52.2" N, 56° 1' 16.9212" E
Код аэродрома ИКАО
USPP
Код аэродрома RU
УСПП
Координаты
N57.91450° E056.02137°
Превышение над уровнем моря
123
Основная полоса
03/21
Курс магнитный
030,8/210,8
Длина основной ВПП
3210
Ширина основной ВПП
49
Покрытие основной ВПП
Твёрдое (цементобетон)
Освещение ВПП
Постоянное
Тип: 
Аэродром
Класс аэродрома: 
Международный
Принадлежность: 
ГА
Статус: 
Действующий
Сайт: 
http://www.aviaperm.ru/
Страна: 
Россия
Регион: 
Пермский край
Город: 
Пермь
Дополнительная информация: 
Оператор: МО РФ. Совместного базирования (ФАВТ и МО). Нкр.=(600)м. Военный индекс: XSPP / ЬСПП.
Погода: 

Авиационная погода в Перми

Регион: 
Погода METAR: 
USPP 241700Z 24006MPS 9999 SCT030 03/01 Q1005 R21/290150 NOSIG RMK QFE743
Время наблюдения
2021-10-24T17:00:00Z
Температура C
3.0
Точка росы
1.0
Направление ветра
240
Скорость ветра (узлы)
12
Метео видимость
6.21
Явления погоды
Условия полета
VFR
Аэропорт подробнее: 

Найти трансфер

С помощью этой формы Вы можете найти трансфер из аэропорта Большое Савино в город, аэропорт или вокзал:

Карта места

Javascript is required to view this map.

Погода в аэропортах:

Авиационная погода в аэропорту Байкал

Регион: 
Погода METAR: 
UIUU 241700Z 00000MPS 4600 FU FEW043 M03/M04 Q1019 R26/CLRD60 NOSIG RMK QFE720/0960
Время наблюдения
2021-10-24T17:00:00Z
Температура C
-3.0
Точка росы
-4.0
Направление ветра
0
Скорость ветра (узлы)
0
Метео видимость
2.86
Явления погоды
FU
Условия полета
IFR
Аэропорт подробнее: 

Авиационная погода в Москве - Остафьево

Погода METAR: 
UUMO 241700Z 32006MPS 9000 -SHSN BKN058CB 01/M01 Q1021 RESHSN R25/290050 NOSIG RMK QFE750/1001
Время наблюдения
2021-10-24T17:00:00Z
Температура C
1.0
Точка росы
-1.0
Направление ветра
320
Скорость ветра (узлы)
12
Метео видимость
5.59
Явления погоды
-SHSN
Условия полета
VFR
Аэропорт подробнее: 

Авиационная погода в Чимкенте

Регион: 
Погода METAR: 
UAII 241800Z 13003MPS 3100 FU NSC 08/03 Q1016 R10/0///70 NOSIG RMK QFE727/0969
Время наблюдения
2021-10-24T18:00:00Z
Температура C
8.0
Точка росы
3.0
Направление ветра
130
Скорость ветра (узлы)
6
Метео видимость
1.93
Явления погоды
FU
Условия полета
IFR
Аэропорт подробнее: 

Авиационная погода в Самсуне

Регион: 
Погода METAR: 
LTFH 241650Z 35016G26KT 8000 -SHRA SCT010 BKN028 BKN080 14/11 Q1024 NOSIG
Время наблюдения
2021-10-24T16:50:00Z
Температура C
14.0
Точка росы
11.0
Направление ветра
350
Скорость ветра (узлы)
16
Метео видимость
4.97
Явления погоды
-SHRA
Условия полета
MVFR